Forside
METAR-TAF:

METAR-TAF

Lufthavne :

Amman, Jordan

Breddekreds: 31-59N, længdekreds: 035-59E, højde: 767 m

Aktuelle vejr

Denne rapport blev lavet for 14 minutter siden, kl. 17:00 UTC
Vind 7 kt fra nordvest
Temperatur 20°C
Fugtighed 68%
Tryk 1017 hPa
Sigt: 5000 m
tåge/dis

METAR: OJAM 161700Z 31007KT 5000 HZ NSC 20/14 Q1017 NOSIG

Tid: 20:14 (17:14 UTC)

Vejrudsigter

Denne rapport blev lavet for 6 timer og 14 minutter siden, kl. 11:00 UTC
Foreløbig gælder fra 16 på 12 UTC til 17 på 18 UTC
Vind 8 kt fra nordnordvest
Sigt: 5000 m
tåge/dis
Midlertidig
fra 17 på 01 UTC til 17 på 06 UTC
Vind 2 kt fra varierende retninger
Sigt: 3000 m
dis

TAF: OJAM 161100Z 1612/1718 33008KT 5000 HZ NSC TEMPO 1701/1706 VRB02KT 3000 BR

Vejrobservationer og prognoser fra mere end 4000 lufthavne (METAR og TAF).

De gule og røde prikker repræsenterer de meteorologiske stationer.

Flyt musen over at se navnet på stationen.

Så klik over at se vejr observationer og prognoser.

At skifte det kort: Klik på de grønne knapper med et sort kors for at zoome ind; på den grønne knap med en bindestreg for at zoome ud; eller på de grønne pile for tilstødende kort.


METAR-TAF: